createdAt,value
2022-11-20T00:00:18.258Z,13.68
2022-11-20T00:01:26.097Z,13.81
2022-11-20T00:02:28.833Z,14.31
2022-11-20T00:03:30.738Z,14.07
2022-11-20T00:04:32.717Z,15.33
2022-11-20T00:05:34.677Z,14.19
2022-11-20T00:06:36.691Z,15.77
2022-11-20T00:07:38.619Z,14.15
2022-11-20T00:08:41.041Z,15.77
2022-11-20T00:09:42.910Z,17.02
2022-11-20T00:10:44.856Z,15.58
2022-11-20T00:11:46.706Z,15.07
2022-11-20T00:12:48.588Z,15.11
2022-11-20T00:13:53.280Z,12.61
2022-11-20T00:14:55.178Z,14.12
2022-11-20T00:16:01.350Z,15.52
2022-11-20T00:17:03.285Z,12.20
2022-11-20T00:18:05.152Z,15.50
2022-11-20T00:19:07.174Z,12.59
2022-11-20T00:20:11.347Z,13.36
2022-11-20T00:21:25.435Z,16.14
2022-11-20T00:22:27.395Z,14.02
2022-11-20T00:23:30.027Z,13.47
2022-11-20T00:24:31.966Z,14.57
2022-11-20T00:25:36.779Z,12.88
2022-11-20T00:26:38.900Z,14.10
2022-11-20T00:27:40.963Z,14.99
2022-11-20T00:28:44.474Z,14.11
2022-11-20T00:29:46.456Z,14.33
2022-11-20T00:30:48.973Z,13.96
2022-11-20T00:31:50.856Z,15.18
2022-11-20T00:32:52.771Z,14.59
2022-11-20T00:33:56.228Z,13.03
2022-11-20T00:34:58.135Z,15.04
2022-11-20T00:36:02.748Z,13.81
2022-11-20T00:37:04.978Z,15.89
2022-11-20T00:38:07.176Z,15.23
2022-11-20T00:39:09.043Z,15.07
2022-11-20T00:40:12.547Z,14.45
2022-11-20T00:41:16.360Z,13.32
2022-11-20T00:42:18.549Z,13.68
2022-11-20T00:43:20.420Z,13.85
2022-11-20T00:44:22.975Z,14.51
2022-11-20T00:45:24.861Z,13.63
2022-11-20T00:46:28.140Z,16.11
2022-11-20T00:47:30.030Z,14.53
2022-11-20T00:48:32.191Z,15.11
2022-11-20T00:49:34.300Z,12.99
2022-11-20T00:50:36.286Z,15.03
2022-11-20T00:51:38.256Z,16.13
2022-11-20T00:52:40.403Z,13.76
2022-11-20T00:53:43.146Z,15.83
2022-11-20T00:54:45.129Z,16.49
2022-11-20T00:56:03.032Z,15.35
2022-11-20T00:57:04.937Z,15.26
2022-11-20T00:58:10.304Z,16.41
2022-11-20T00:59:10.853Z,16.98
2022-11-20T01:00:14.878Z,25.93
2022-11-20T01:01:20.086Z,27.49
2022-11-20T01:02:22.207Z,25.78
2022-11-20T01:03:27.074Z,26.82
2022-11-20T01:04:27.890Z,24.99
2022-11-20T01:05:31.628Z,23.55
2022-11-20T01:06:36.629Z,24.59
2022-11-20T01:07:39.857Z,24.99
2022-11-20T01:08:42.437Z,23.91
2022-11-20T01:09:44.335Z,20.61
2022-11-20T01:10:46.366Z,20.38
2022-11-20T01:11:48.916Z,20.19
2022-11-20T01:12:50.777Z,24.07
2022-11-20T01:13:54.979Z,21.31
2022-11-20T01:14:57.796Z,22.05
2022-11-20T01:16:05.222Z,20.74
2022-11-20T01:17:07.110Z,19.03
2022-11-20T01:18:08.978Z,19.79
2022-11-20T01:19:17.553Z,21.15
2022-11-20T01:20:17.533Z,20.93
2022-11-20T01:21:22.507Z,21.75
2022-11-20T01:22:24.438Z,20.88
2022-11-20T01:23:26.329Z,18.52
2022-11-20T01:24:28.167Z,18.97
2022-11-20T01:25:30.158Z,20.48
2022-11-20T01:26:34.734Z,20.40
2022-11-20T01:27:36.652Z,19.19
2022-11-20T01:28:41.142Z,15.83
2022-11-20T01:29:43.030Z,18.21
2022-11-20T01:30:45.013Z,16.96
2022-11-20T01:31:47.160Z,18.93
2022-11-20T01:32:49.001Z,18.85
2022-11-20T01:33:53.365Z,21.06
2022-11-20T01:34:55.282Z,25.35
2022-11-20T01:36:06.109Z,23.31
2022-11-20T01:37:08.032Z,24.92
2022-11-20T01:38:09.895Z,21.11
2022-11-20T01:39:15.180Z,20.74
2022-11-20T01:40:17.295Z,21.50
2022-11-20T01:41:19.265Z,23.53
2022-11-20T01:42:22.449Z,20.39
2022-11-20T01:43:25.086Z,18.49
2022-11-20T01:44:53.970Z,18.77
2022-11-20T01:46:17.136Z,18.58
2022-11-20T01:47:41.488Z,18.39
2022-11-20T01:48:48.194Z,17.72
2022-11-20T01:52:28.669Z,19.20
2022-11-20T01:53:34.352Z,17.04
2022-11-20T01:54:42.785Z,20.65
2022-11-20T01:58:03.520Z,22.85
2022-11-20T01:59:08.827Z,23.17
2022-11-20T02:00:15.146Z,21.86
2022-11-20T02:01:17.782Z,21.71
2022-11-20T02:02:21.196Z,20.01
2022-11-20T02:03:24.011Z,22.04
2022-11-20T02:04:26.170Z,24.30
2022-11-20T02:05:37.642Z,23.17
2022-11-20T02:06:46.752Z,21.11
2022-11-20T02:07:48.651Z,20.91
2022-11-20T02:08:52.339Z,21.21
2022-11-20T02:09:58.548Z,23.02
2022-11-20T02:10:58.647Z,22.89
2022-11-20T02:12:01.206Z,20.72
2022-11-20T02:13:04.032Z,22.69
2022-11-20T02:14:07.058Z,21.81
2022-11-20T02:15:10.496Z,23.51
2022-11-20T02:16:26.517Z,23.11
2022-11-20T02:17:28.745Z,25.17
2022-11-20T02:18:31.182Z,26.11
2022-11-20T02:19:33.246Z,24.74
2022-11-20T02:20:35.742Z,21.21
2022-11-20T02:21:44.365Z,21.52
2022-11-20T02:25:10.659Z,20.06
2022-11-20T02:26:14.922Z,16.90
2022-11-20T02:27:17.220Z,17.45
2022-11-20T02:28:19.901Z,17.11
2022-11-20T02:29:28.269Z,18.49
2022-11-20T02:30:34.085Z,17.48
2022-11-20T02:31:42.326Z,16.62
2022-11-20T02:32:44.532Z,16.67
2022-11-20T02:33:46.615Z,16.25
2022-11-20T02:34:48.897Z,17.59
2022-11-20T02:35:50.770Z,16.98
2022-11-20T02:36:53.873Z,16.43
2022-11-20T02:37:58.403Z,16.42
2022-11-20T02:39:00.522Z,15.76
2022-11-20T02:40:03.161Z,15.41
2022-11-20T02:41:05.036Z,17.76
2022-11-20T02:42:07.001Z,20.45
2022-11-20T02:43:09.889Z,18.16
2022-11-20T02:44:12.376Z,18.64
2022-11-20T02:45:14.433Z,17.05
2022-11-20T02:46:16.818Z,18.86
2022-11-20T02:47:18.691Z,18.57
2022-11-20T02:48:20.554Z,18.13
2022-11-20T02:49:22.857Z,16.13
2022-11-20T02:50:25.218Z,18.89
2022-11-20T02:51:27.199Z,17.20
2022-11-20T02:52:29.091Z,17.44
2022-11-20T02:53:31.144Z,20.13
2022-11-20T02:54:32.997Z,18.61
2022-11-20T02:55:36.114Z,20.13
2022-11-20T02:56:39.733Z,21.81
2022-11-20T02:57:41.625Z,20.54
2022-11-20T02:58:43.481Z,17.67
2022-11-20T02:59:45.367Z,17.76
2022-11-20T03:00:47.331Z,17.99
2022-11-20T03:01:49.219Z,19.32
2022-11-20T03:02:51.097Z,16.71
2022-11-20T03:03:55.431Z,18.16
2022-11-20T03:04:57.479Z,18.56
2022-11-20T03:06:00.157Z,20.91
2022-11-20T03:07:03.190Z,19.41
2022-11-20T03:08:05.643Z,19.21
2022-11-20T03:09:07.492Z,19.45
2022-11-20T03:10:09.783Z,19.65
2022-11-20T03:11:11.761Z,19.49
2022-11-20T03:12:14.855Z,17.07
2022-11-20T03:13:16.731Z,19.82
2022-11-20T03:14:18.830Z,22.68
2022-11-20T03:15:20.705Z,19.67
2022-11-20T03:16:23.673Z,19.61
2022-11-20T03:17:25.626Z,21.95
2022-11-20T03:18:28.969Z,22.39
2022-11-20T03:19:32.969Z,18.86
2022-11-20T03:20:35.061Z,21.97
2022-11-20T03:21:36.998Z,21.57
2022-11-20T03:22:38.880Z,20.64
2022-11-20T03:23:40.801Z,21.86
2022-11-20T03:24:42.710Z,19.54
2022-11-20T03:25:44.572Z,20.12
2022-11-20T03:26:46.647Z,21.25
2022-11-20T03:27:48.709Z,21.41
2022-11-20T03:28:53.476Z,20.43
2022-11-20T03:29:55.379Z,20.68
2022-11-20T03:30:58.729Z,23.89
2022-11-20T03:32:00.914Z,24.29
2022-11-20T03:33:02.994Z,26.73
2022-11-20T03:34:05.053Z,23.71
2022-11-20T03:35:08.284Z,25.85
2022-11-20T03:36:13.921Z,28.35
2022-11-20T03:37:16.006Z,23.47
2022-11-20T03:38:18.159Z,25.58
2022-11-20T03:39:20.387Z,21.08
2022-11-20T03:40:22.807Z,25.43
2022-11-20T03:41:27.678Z,22.37
2022-11-20T03:42:29.648Z,22.49
2022-11-20T03:43:32.959Z,22.73
2022-11-20T03:44:34.833Z,21.95
2022-11-20T03:45:36.703Z,18.91
2022-11-20T03:46:38.668Z,21.21
2022-11-20T03:47:40.516Z,24.42
2022-11-20T03:48:45.376Z,19.57
2022-11-20T03:49:48.323Z,23.37
2022-11-20T03:50:50.304Z,21.06
2022-11-20T03:51:52.211Z,20.00
2022-11-20T03:52:54.072Z,23.85
2022-11-20T03:53:58.549Z,21.69
2022-11-20T03:55:00.476Z,22.32
2022-11-20T03:56:03.641Z,20.64
2022-11-20T03:57:05.716Z,20.59
2022-11-20T03:58:08.870Z,21.50
2022-11-20T03:59:11.369Z,22.40
2022-11-20T04:00:15.983Z,21.84
2022-11-20T04:01:20.433Z,23.10
2022-11-20T04:02:24.733Z,23.46
2022-11-20T04:03:26.639Z,24.35
2022-11-20T04:04:28.486Z,25.49
2022-11-20T04:05:30.348Z,25.95
2022-11-20T04:06:37.693Z,26.74
2022-11-20T04:07:39.749Z,24.67
2022-11-20T04:08:45.915Z,30.03
2022-11-20T04:09:48.275Z,24.14
2022-11-20T04:10:50.381Z,26.96
2022-11-20T04:11:52.236Z,25.35
2022-11-20T04:12:54.102Z,23.49
2022-11-20T04:13:59.278Z,24.91
2022-11-20T04:15:01.294Z,25.82
2022-11-20T04:16:04.529Z,28.29
2022-11-20T04:17:06.399Z,32.76
2022-11-20T04:18:08.377Z,28.09
2022-11-20T04:19:15.466Z,28.97
2022-11-20T04:20:18.387Z,28.66
2022-11-20T04:21:21.396Z,26.51
2022-11-20T04:22:23.596Z,26.09
2022-11-20T04:23:28.894Z,31.27
2022-11-20T04:24:31.145Z,30.44
2022-11-20T04:25:33.055Z,27.56
2022-11-20T04:26:35.320Z,28.52
2022-11-20T04:27:37.207Z,25.94
2022-11-20T04:28:39.990Z,28.11
2022-11-20T04:29:41.963Z,30.87
2022-11-20T04:30:44.143Z,30.95
2022-11-20T04:31:46.006Z,31.22
2022-11-20T04:32:47.875Z,31.17
2022-11-20T04:33:50.262Z,32.37
2022-11-20T04:34:52.197Z,31.97
2022-11-20T04:35:54.193Z,31.48
2022-11-20T04:36:56.152Z,36.40
2022-11-20T04:37:58.015Z,33.87
2022-11-20T04:39:07.003Z,32.43
2022-11-20T04:40:10.402Z,30.77
2022-11-20T04:41:18.060Z,31.37
2022-11-20T04:42:19.994Z,29.67
2022-11-20T04:43:21.855Z,31.37
2022-11-20T04:44:23.749Z,29.83
2022-11-20T04:45:25.720Z,28.27
2022-11-20T04:46:28.405Z,33.17
2022-11-20T04:47:30.801Z,37.63
2022-11-20T04:48:32.655Z,35.79
2022-11-20T04:49:34.581Z,36.61
2022-11-20T04:50:40.385Z,37.55
2022-11-20T04:51:43.200Z,42.72
2022-11-20T04:52:45.070Z,39.53
2022-11-20T04:53:49.223Z,40.60
2022-11-20T04:54:51.511Z,41.70
2022-11-20T04:55:57.150Z,42.82
2022-11-20T04:56:59.255Z,43.62
2022-11-20T04:58:01.151Z,43.00
2022-11-20T04:59:03.433Z,44.59
2022-11-20T05:00:08.894Z,42.34
2022-11-20T05:01:13.972Z,46.37
2022-11-20T05:02:16.217Z,42.80
2022-11-20T05:03:18.095Z,49.18
2022-11-20T05:04:20.058Z,45.43
2022-11-20T05:05:23.085Z,44.97
2022-11-20T05:06:25.538Z,45.14
2022-11-20T05:07:27.455Z,46.63
2022-11-20T05:08:32.788Z,46.38
2022-11-20T05:09:34.701Z,46.14
2022-11-20T05:10:36.660Z,43.29
2022-11-20T05:11:41.379Z,46.65
2022-11-20T05:12:43.274Z,41.44
2022-11-20T05:13:45.474Z,45.75
2022-11-20T05:14:47.559Z,39.67
2022-11-20T05:15:49.746Z,43.01
2022-11-20T05:16:55.268Z,43.61
2022-11-20T05:17:57.205Z,43.01
2022-11-20T05:18:59.062Z,48.01
2022-11-20T05:20:00.926Z,48.39
2022-11-20T05:21:05.798Z,45.02
2022-11-20T05:22:07.695Z,49.79
2022-11-20T05:23:09.580Z,40.37
2022-11-20T05:24:11.586Z,40.79
2022-11-20T05:25:13.725Z,45.22
2022-11-20T05:28:33.582Z,35.21
2022-11-20T05:29:35.483Z,38.45
2022-11-20T05:30:37.470Z,37.18
2022-11-20T05:31:41.005Z,39.27
2022-11-20T05:32:42.937Z,39.36
2022-11-20T05:33:45.620Z,41.89
2022-11-20T05:34:47.511Z,37.15
2022-11-20T05:35:49.395Z,39.25
2022-11-20T05:36:51.427Z,41.19
2022-11-20T05:37:53.295Z,37.53
2022-11-20T05:39:01.003Z,36.83
2022-11-20T05:39:59.911Z,33.38
2022-11-20T05:41:08.135Z,35.54
2022-11-20T05:42:10.041Z,36.57
2022-11-20T05:43:11.905Z,38.79
2022-11-20T05:44:16.114Z,36.31
2022-11-20T05:45:18.195Z,37.19
2022-11-20T05:46:27.663Z,35.21
2022-11-20T05:47:27.736Z,38.43
2022-11-20T05:48:32.859Z,33.68
2022-11-20T05:49:34.862Z,37.34
2022-11-20T05:50:36.826Z,37.07
2022-11-20T05:51:38.685Z,35.36
2022-11-20T05:52:41.439Z,34.71
2022-11-20T05:53:48.239Z,35.25
2022-11-20T05:54:48.372Z,34.38
2022-11-20T05:56:06.150Z,34.02
2022-11-20T05:57:08.096Z,33.18
2022-11-20T05:58:09.998Z,35.19
2022-11-20T05:59:11.842Z,31.03
2022-11-20T06:00:16.185Z,33.75
2022-11-20T06:01:24.115Z,30.24
2022-11-20T06:02:26.176Z,31.98
2022-11-20T06:03:28.256Z,31.01
2022-11-20T06:04:30.218Z,24.49
2022-11-20T06:05:33.843Z,34.89
2022-11-20T06:06:35.968Z,35.02
2022-11-20T06:07:37.920Z,31.81
2022-11-20T06:08:40.605Z,31.21
2022-11-20T06:09:42.473Z,33.19
2022-11-20T06:10:44.989Z,35.53
2022-11-20T06:11:46.991Z,33.86
2022-11-20T06:12:48.862Z,33.95
2022-11-20T06:13:51.069Z,35.25
2022-11-20T06:14:53.002Z,34.76
2022-11-20T06:15:54.874Z,34.47
2022-11-20T06:16:56.826Z,33.80
2022-11-20T06:17:58.697Z,35.61
2022-11-20T06:19:00.678Z,34.21
2022-11-20T06:20:03.161Z,38.39
2022-11-20T06:21:11.458Z,35.47
2022-11-20T06:22:16.211Z,33.04
2022-11-20T06:23:18.109Z,33.54
2022-11-20T06:24:20.091Z,34.04
2022-11-20T06:25:21.959Z,35.20
2022-11-20T06:26:27.042Z,39.53
2022-11-20T06:27:29.594Z,38.31
2022-11-20T06:28:32.176Z,36.05
2022-11-20T06:29:34.360Z,38.93
2022-11-20T06:30:37.550Z,35.04
2022-11-20T06:31:39.411Z,37.91
2022-11-20T06:32:41.277Z,36.48
2022-11-20T06:33:44.101Z,34.08
2022-11-20T06:34:46.078Z,34.58
2022-11-20T06:35:47.928Z,34.85
2022-11-20T06:36:49.882Z,38.33
2022-11-20T06:37:51.749Z,31.49
2022-11-20T06:38:53.786Z,33.05
2022-11-20T06:39:55.641Z,34.41
2022-11-20T06:40:57.600Z,32.71
2022-11-20T06:41:59.588Z,33.76
2022-11-20T06:43:01.466Z,34.72
2022-11-20T06:44:05.228Z,33.54
2022-11-20T06:45:08.871Z,29.92
2022-11-20T06:46:13.505Z,32.51
2022-11-20T06:47:15.386Z,32.18
2022-11-20T06:48:17.281Z,31.12
2022-11-20T06:49:19.738Z,34.29
2022-11-20T06:50:21.984Z,32.64
2022-11-20T06:51:24.136Z,35.51
2022-11-20T06:52:25.979Z,33.95
2022-11-20T06:53:27.935Z,33.29
2022-11-20T06:54:29.841Z,32.35
2022-11-20T06:55:32.126Z,33.62
2022-11-20T06:56:34.110Z,33.79
2022-11-20T06:57:35.975Z,31.46
2022-11-20T06:58:39.164Z,31.44
2022-11-20T06:59:41.351Z,31.74
2022-11-20T07:00:43.860Z,29.58
2022-11-20T07:01:45.990Z,33.91
2022-11-20T07:02:47.857Z,29.18
2022-11-20T07:03:54.021Z,28.77
2022-11-20T07:04:53.749Z,30.11
2022-11-20T07:05:56.441Z,29.03
2022-11-20T07:06:58.444Z,28.95
2022-11-20T07:08:00.586Z,32.90
2022-11-20T07:09:03.101Z,32.00
2022-11-20T07:10:07.218Z,31.06
2022-11-20T07:11:12.353Z,29.21
2022-11-20T07:12:14.335Z,28.57
2022-11-20T07:13:16.607Z,32.65
2022-11-20T07:14:18.496Z,32.79
2022-11-20T07:15:23.978Z,33.97
2022-11-20T07:16:25.993Z,31.08
2022-11-20T07:17:27.840Z,33.31
2022-11-20T07:18:29.803Z,31.33
2022-11-20T07:19:31.708Z,31.59
2022-11-20T07:20:33.763Z,32.46
2022-11-20T07:21:35.645Z,34.63
2022-11-20T07:22:38.028Z,29.71
2022-11-20T07:23:39.894Z,31.25
2022-11-20T07:24:45.811Z,30.33
2022-11-20T07:25:45.710Z,30.66
2022-11-20T07:26:47.874Z,28.97
2022-11-20T07:27:50.646Z,31.53
2022-11-20T07:28:52.548Z,33.86
2022-11-20T07:29:54.486Z,35.70
2022-11-20T07:30:56.546Z,32.07
2022-11-20T07:31:58.412Z,36.71
2022-11-20T07:33:00.393Z,35.61
2022-11-20T07:34:02.467Z,33.74
2022-11-20T07:35:06.489Z,35.54
2022-11-20T07:36:10.419Z,34.06
2022-11-20T07:37:15.039Z,32.54
2022-11-20T07:38:17.010Z,31.68
2022-11-20T07:39:19.069Z,34.37
2022-11-20T07:40:21.241Z,33.15
2022-11-20T07:41:23.332Z,34.08
2022-11-20T07:42:25.225Z,30.59
2022-11-20T07:43:27.907Z,33.89
2022-11-20T07:44:29.780Z,31.81
2022-11-20T07:45:31.710Z,34.03
2022-11-20T07:46:33.771Z,32.70
2022-11-20T07:47:36.820Z,32.15
2022-11-20T07:48:38.699Z,30.98
2022-11-20T07:49:40.620Z,32.02
2022-11-20T07:50:45.682Z,30.15
2022-11-20T07:51:53.058Z,29.92
2022-11-20T07:53:06.327Z,31.16
2022-11-20T07:54:08.225Z,31.94
2022-11-20T07:55:11.180Z,30.11
2022-11-20T07:56:13.432Z,30.43
2022-11-20T07:57:15.298Z,29.53
2022-11-20T07:58:17.151Z,32.51
2022-11-20T07:59:19.134Z,29.03
2022-11-20T08:00:21.300Z,30.03
2022-11-20T08:01:23.275Z,29.92
2022-11-20T08:02:25.908Z,29.66
2022-11-20T08:03:28.181Z,29.05
2022-11-20T08:04:30.076Z,26.86
2022-11-20T08:05:32.504Z,27.33
2022-11-20T08:06:35.090Z,26.20
2022-11-20T08:07:38.651Z,28.66
2022-11-20T08:08:43.078Z,31.21
2022-11-20T08:09:45.709Z,28.84
2022-11-20T08:10:47.699Z,31.05
2022-11-20T08:11:49.562Z,27.59
2022-11-20T08:12:52.737Z,29.35
2022-11-20T08:13:54.654Z,25.41
2022-11-20T08:14:58.030Z,24.95
2022-11-20T08:15:59.911Z,25.26
2022-11-20T08:17:01.778Z,25.83
2022-11-20T08:18:30.150Z,25.01
2022-11-20T08:19:10.497Z,26.37
2022-11-20T08:20:12.873Z,23.60
2022-11-20T08:21:14.778Z,23.11
2022-11-20T08:22:16.665Z,22.94
2022-11-20T08:23:18.741Z,25.55
2022-11-20T08:24:20.590Z,24.10
2022-11-20T08:25:22.473Z,23.71
2022-11-20T08:26:25.158Z,22.81
2022-11-20T08:27:27.140Z,22.85
2022-11-20T08:28:29.019Z,24.17
2022-11-20T08:29:30.914Z,22.97
2022-11-20T08:30:34.087Z,21.01
2022-11-20T08:31:36.221Z,24.49
2022-11-20T08:32:38.128Z,22.13
2022-11-20T08:33:40.017Z,20.52
2022-11-20T08:34:41.996Z,20.84
2022-11-20T08:35:44.033Z,23.46
2022-11-20T08:36:46.017Z,21.05
2022-11-20T08:37:48.890Z,24.18
2022-11-20T08:38:53.026Z,20.60
2022-11-20T08:39:54.997Z,21.11
2022-11-20T08:43:12.864Z,19.72
2022-11-20T08:44:14.960Z,18.79
2022-11-20T08:45:19.274Z,19.36
2022-11-20T08:46:21.971Z,19.12
2022-11-20T08:47:23.963Z,20.75
2022-11-20T08:48:25.870Z,20.34
2022-11-20T08:49:27.861Z,18.11
2022-11-20T08:50:29.958Z,18.72
2022-11-20T08:51:32.089Z,20.29
2022-11-20T08:52:38.466Z,18.64
2022-11-20T08:53:38.898Z,19.21
2022-11-20T08:54:40.785Z,19.61
2022-11-20T08:55:42.839Z,21.73
2022-11-20T08:56:45.027Z,24.09
2022-11-20T08:57:50.797Z,22.40
2022-11-20T09:00:11.062Z,21.28
2022-11-20T09:00:59.496Z,22.32
2022-11-20T09:02:01.660Z,20.19
2022-11-20T09:03:05.680Z,22.45
2022-11-20T09:04:07.581Z,21.14
2022-11-20T09:05:09.424Z,20.90
2022-11-20T09:06:11.585Z,19.61
2022-11-20T09:07:13.578Z,21.46
2022-11-20T09:08:15.754Z,21.30
2022-11-20T09:09:18.226Z,22.19
2022-11-20T09:10:24.718Z,22.49
2022-11-20T09:11:24.312Z,23.24
2022-11-20T09:12:26.375Z,21.47
2022-11-20T09:13:29.282Z,22.72
2022-11-20T09:14:31.230Z,19.64
2022-11-20T09:15:35.663Z,19.25
2022-11-20T09:16:37.683Z,21.05
2022-11-20T09:17:39.649Z,18.65
2022-11-20T09:18:41.523Z,19.03
2022-11-20T09:19:43.574Z,20.36
2022-11-20T09:20:46.431Z,19.77
2022-11-20T09:21:49.255Z,17.36
2022-11-20T09:22:51.538Z,18.63
2022-11-20T09:23:53.406Z,19.09
2022-11-20T09:24:55.289Z,19.33
2022-11-20T09:25:57.198Z,20.33
2022-11-20T09:27:04.908Z,20.77
2022-11-20T09:28:06.944Z,20.23
2022-11-20T09:29:09.098Z,21.04
2022-11-20T09:31:27.534Z,18.53
2022-11-20T09:32:29.817Z,18.70
2022-11-20T09:33:34.719Z,19.90
2022-11-20T09:34:36.611Z,17.14
2022-11-20T09:35:38.491Z,18.47
2022-11-20T09:36:40.458Z,19.33
2022-11-20T09:37:42.303Z,20.15
2022-11-20T09:38:45.368Z,17.28
2022-11-20T09:39:47.388Z,20.07
2022-11-20T09:41:09.022Z,18.68
2022-11-20T09:42:39.126Z,20.16
2022-11-20T09:44:02.728Z,17.21
2022-11-20T09:45:29.889Z,19.36
2022-11-20T09:46:48.105Z,19.81
2022-11-20T09:48:13.842Z,21.41
2022-11-20T09:49:46.546Z,19.68
2022-11-20T09:51:00.922Z,20.53
2022-11-20T09:52:10.222Z,20.39
2022-11-20T09:53:15.983Z,21.22
2022-11-20T09:54:21.155Z,22.36
2022-11-20T09:55:23.470Z,21.27
2022-11-20T09:56:26.254Z,19.81
2022-11-20T09:58:57.831Z,21.55
2022-11-20T10:00:02.346Z,25.84
2022-11-20T10:01:08.081Z,22.00
2022-11-20T10:02:26.251Z,19.99
2022-11-20T10:03:44.006Z,20.75
2022-11-20T10:05:09.780Z,20.16
2022-11-20T10:06:15.541Z,20.40
2022-11-20T10:07:36.514Z,20.01
2022-11-20T10:08:44.391Z,18.37
2022-11-20T10:09:53.402Z,18.07
2022-11-20T10:11:16.100Z,19.19
2022-11-20T10:12:33.582Z,18.78
2022-11-20T10:14:00.428Z,17.17
2022-11-20T10:15:15.050Z,17.67
2022-11-20T10:16:38.019Z,16.19
2022-11-20T10:17:57.102Z,18.19
2022-11-20T10:19:15.006Z,17.01
2022-11-20T10:20:30.036Z,16.92
2022-11-20T10:21:50.977Z,17.53
2022-11-20T10:23:02.675Z,17.61
2022-11-20T10:24:25.316Z,17.59
2022-11-20T10:25:31.075Z,17.26
2022-11-20T10:26:42.974Z,17.14
2022-11-20T10:29:13.851Z,17.59
2022-11-20T10:30:18.174Z,18.20
2022-11-20T10:31:36.150Z,17.59
2022-11-20T10:32:44.736Z,16.17
2022-11-20T10:34:10.972Z,17.35
2022-11-20T10:35:02.352Z,17.24
2022-11-20T10:36:23.392Z,17.37
2022-11-20T10:37:27.207Z,17.49
2022-11-20T10:38:36.029Z,18.37
2022-11-20T10:39:47.531Z,16.03
2022-11-20T10:40:53.530Z,17.52
2022-11-20T10:41:56.935Z,16.36
2022-11-20T10:43:17.585Z,17.68
2022-11-20T10:44:29.121Z,18.72
2022-11-20T10:46:53.424Z,18.79
2022-11-20T10:48:00.722Z,16.79
2022-11-20T10:49:06.375Z,18.28
2022-11-20T10:50:12.743Z,18.34
2022-11-20T10:51:35.131Z,17.21
2022-11-20T10:53:05.268Z,19.95
2022-11-20T10:54:20.047Z,18.99
2022-11-20T10:55:46.916Z,19.68
2022-11-20T10:56:52.310Z,19.45
2022-11-20T10:58:00.736Z,18.91
2022-11-20T10:59:18.181Z,20.46
2022-11-20T11:00:21.703Z,20.41
2022-11-20T11:01:23.807Z,17.77
2022-11-20T11:04:47.826Z,19.96
2022-11-20T11:05:56.281Z,20.23
2022-11-20T11:07:25.009Z,23.56
2022-11-20T11:08:30.741Z,22.72
2022-11-20T11:09:36.505Z,21.80
2022-11-20T11:10:51.575Z,21.43
2022-11-20T11:11:53.494Z,23.00
2022-11-20T11:12:55.380Z,21.05
2022-11-20T11:14:15.518Z,22.10
2022-11-20T11:15:40.571Z,23.58
2022-11-20T11:16:54.902Z,21.04
2022-11-20T11:17:57.246Z,20.65
2022-11-20T11:19:15.729Z,22.61
2022-11-20T11:20:23.700Z,22.17
2022-11-20T11:21:26.801Z,22.42
2022-11-20T11:22:31.708Z,21.85
2022-11-20T11:23:39.893Z,19.95
2022-11-20T11:24:45.556Z,23.52
2022-11-20T11:25:51.421Z,21.88
2022-11-20T11:27:03.171Z,20.87
2022-11-20T11:29:15.313Z,19.46
2022-11-20T11:30:21.392Z,21.32
2022-11-20T11:31:30.827Z,19.76
2022-11-20T11:32:32.764Z,21.82
2022-11-20T11:33:34.753Z,21.20
2022-11-20T11:34:37.705Z,20.58
2022-11-20T11:35:49.737Z,20.45
2022-11-20T11:36:53.588Z,18.86
2022-11-20T11:40:25.664Z,19.39
2022-11-20T11:41:34.572Z,19.09
2022-11-20T11:42:43.286Z,19.38
2022-11-20T11:43:57.934Z,20.93
2022-11-20T11:45:00.929Z,18.47
2022-11-20T11:46:06.489Z,18.92
2022-11-20T11:47:20.861Z,19.06
2022-11-20T11:48:23.136Z,19.43
2022-11-20T11:49:25.660Z,18.45
2022-11-20T11:50:29.408Z,21.27
2022-11-20T11:52:07.537Z,20.19
2022-11-20T11:53:16.406Z,18.25
2022-11-20T11:54:38.962Z,20.81
2022-11-20T11:55:56.480Z,19.24
2022-11-20T11:57:05.132Z,18.11
2022-11-20T11:58:19.985Z,20.35
2022-11-20T11:59:28.915Z,16.62
2022-11-20T12:00:33.028Z,18.04
2022-11-20T12:01:50.080Z,20.37
2022-11-20T12:03:02.113Z,18.64
2022-11-20T12:04:27.220Z,19.79
2022-11-20T12:05:47.479Z,17.50
2022-11-20T12:06:56.983Z,19.91
2022-11-20T12:08:17.597Z,18.10
2022-11-20T12:09:23.785Z,21.83
2022-11-20T12:13:04.660Z,20.35
2022-11-20T12:14:19.862Z,19.53
2022-11-20T12:15:25.713Z,20.55
2022-11-20T12:16:30.385Z,19.17
2022-11-20T12:17:33.005Z,22.47
2022-11-20T12:18:34.970Z,19.41
2022-11-20T12:19:36.879Z,18.87
2022-11-20T12:20:44.377Z,18.70
2022-11-20T12:22:00.037Z,19.69
2022-11-20T12:23:12.511Z,18.37
2022-11-20T12:24:45.007Z,21.23
2022-11-20T12:25:50.824Z,18.69
2022-11-20T12:27:27.218Z,20.31
2022-11-20T12:28:38.749Z,20.21
2022-11-20T12:29:50.495Z,22.83
2022-11-20T12:32:33.607Z,23.67
2022-11-20T12:33:54.661Z,20.89
2022-11-20T12:35:19.481Z,23.90
2022-11-20T12:36:36.966Z,22.82
2022-11-20T12:37:48.928Z,25.34
2022-11-20T12:38:54.782Z,26.22
2022-11-20T12:40:07.374Z,25.78
2022-11-20T12:41:25.152Z,24.17
2022-11-20T12:42:51.070Z,28.75
2022-11-20T12:44:05.377Z,24.55
2022-11-20T12:45:20.417Z,26.47
2022-11-20T12:46:47.518Z,22.74
2022-11-20T12:48:14.692Z,26.02
2022-11-20T12:49:38.207Z,28.53
2022-11-20T12:51:15.112Z,25.04
2022-11-20T12:52:15.276Z,25.11
2022-11-20T12:53:30.372Z,26.96
2022-11-20T12:55:01.193Z,25.45
2022-11-20T12:56:19.224Z,26.20
2022-11-20T12:57:27.880Z,26.13
2022-11-20T12:59:06.030Z,25.34
2022-11-20T13:00:19.809Z,24.70
2022-11-20T13:01:43.521Z,25.32
2022-11-20T13:03:09.204Z,28.56
2022-11-20T13:04:30.245Z,28.22
2022-11-20T13:05:57.615Z,28.44
2022-11-20T13:07:02.953Z,25.14
2022-11-20T13:10:44.625Z,27.38
2022-11-20T13:12:11.062Z,28.79
2022-11-20T13:13:16.888Z,27.16
2022-11-20T13:14:34.519Z,25.13
2022-11-20T13:18:11.656Z,25.21
2022-11-20T13:19:16.101Z,23.31
2022-11-20T13:20:20.840Z,24.05
2022-11-20T13:21:26.478Z,21.86
2022-11-20T13:22:32.253Z,22.44
2022-11-20T13:23:34.165Z,25.01
2022-11-20T13:24:36.055Z,19.81
2022-11-20T13:25:40.363Z,21.17
2022-11-20T13:26:42.391Z,23.06
2022-11-20T13:27:48.828Z,22.29
2022-11-20T13:29:06.078Z,26.43
2022-11-20T13:30:16.794Z,23.62
2022-11-20T13:31:34.414Z,22.12
2022-11-20T13:32:38.631Z,21.05
2022-11-20T13:33:40.891Z,19.64
2022-11-20T13:34:58.422Z,20.93
2022-11-20T13:38:49.669Z,23.96
2022-11-20T13:39:51.829Z,21.23
2022-11-20T13:40:59.980Z,20.85
2022-11-20T13:44:40.308Z,21.47
2022-11-20T13:46:46.615Z,22.23
2022-11-20T13:47:51.322Z,22.82
2022-11-20T13:48:55.369Z,20.80
2022-11-20T13:49:59.293Z,21.25
2022-11-20T13:51:20.172Z,25.22
2022-11-20T13:52:31.701Z,20.49
2022-11-20T13:54:57.946Z,22.09
2022-11-20T13:56:03.934Z,19.71
2022-11-20T13:57:27.910Z,19.45
2022-11-20T13:58:45.907Z,22.95
2022-11-20T14:00:00.423Z,20.88
2022-11-20T14:01:12.872Z,20.82
2022-11-20T14:02:18.051Z,20.46
2022-11-20T14:03:44.053Z,19.76
2022-11-20T14:04:34.935Z,21.23
2022-11-20T14:05:40.653Z,22.72
2022-11-20T14:06:46.142Z,22.83
2022-11-20T14:07:49.357Z,21.68
2022-11-20T14:08:52.005Z,22.67
2022-11-20T14:09:56.519Z,22.49
2022-11-20T14:11:18.820Z,23.73
2022-11-20T14:12:30.140Z,20.49
2022-11-20T14:13:32.919Z,21.15
2022-11-20T14:14:34.794Z,24.78
2022-11-20T14:15:41.827Z,21.76
2022-11-20T14:16:40.920Z,23.05
2022-11-20T14:17:42.907Z,21.93
2022-11-20T14:18:45.916Z,21.68
2022-11-20T14:19:50.586Z,19.62
2022-11-20T14:20:52.995Z,19.13
2022-11-20T14:22:18.029Z,20.41
2022-11-20T14:23:30.230Z,18.46
2022-11-20T14:24:33.025Z,23.03
2022-11-20T14:25:36.437Z,20.00
2022-11-20T14:26:44.168Z,19.14
2022-11-20T14:27:55.564Z,21.93
2022-11-20T14:29:00.885Z,22.09
2022-11-20T14:30:05.425Z,22.46
2022-11-20T14:31:11.132Z,21.95
2022-11-20T14:32:23.904Z,19.03
2022-11-20T14:33:27.218Z,20.32
2022-11-20T14:34:32.718Z,19.32
2022-11-20T14:35:38.535Z,20.42
2022-11-20T14:36:44.002Z,19.78
2022-11-20T14:37:46.401Z,20.45
2022-11-20T14:38:48.985Z,22.19
2022-11-20T14:39:53.935Z,17.95
2022-11-20T14:41:09.256Z,20.52
2022-11-20T14:42:18.013Z,19.51
2022-11-20T14:43:26.140Z,19.64
2022-11-20T14:44:34.185Z,18.15
2022-11-20T14:45:38.938Z,19.13